Time;durP1;ratioP1;P1;durP2;ratioP2;P2;SDS_P1;SDS_P2;PMS_P1;PMS_P2;Temp;Humidity;BMP_temperature;BMP_pressure;BME280_temperature;BME280_humidity;BME280_pressure;Samples;Min_cycle;Max_cycle;Signal;HPM_P1;HPM_P2
2024/01/21 00:01:31;;;;;;;10.63;4.13;;;;;;;5.15;38.81;102189.56;4975119;28;20102;-63
2024/01/21 00:03:57;;;;;;;12.25;4.25;;;;;;;5.14;39.65;102184.28;4975069;28;20022;-63
2024/01/21 00:06:23;;;;;;;8.02;3.58;;;;;;;5.18;40.19;102175.28;4973701;28;20033;-62
2024/01/21 00:08:48;;;;;;;9.73;5.00;;;;;;;5.15;39.83;102170.97;4973218;28;20041;-63
2024/01/21 00:11:13;;;;;;;8.48;3.65;;;;;;;5.17;39.44;102174.41;4974727;28;20026;-62
2024/01/21 00:13:39;;;;;;;11.05;4.03;;;;;;;5.17;39.54;102168.22;4973016;28;20506;-63
2024/01/21 00:16:04;;;;;;;11.20;4.25;;;;;;;5.19;38.49;102175.22;4973779;28;20029;-63
2024/01/21 00:18:29;;;;;;;8.48;4.47;;;;;;;5.21;39.56;102165.41;4973621;28;20121;-63
2024/01/21 00:20:55;;;;;;;7.50;3.33;;;;;;;5.21;39.21;102157.44;4973835;28;20041;-62
2024/01/21 00:23:21;;;;;;;9.00;3.75;;;;;;;5.21;38.65;102145.94;4973719;28;20133;-63
2024/01/21 00:25:47;;;;;;;11.80;4.30;;;;;;;5.19;40.10;102140.69;4974804;28;20101;-62
2024/01/21 00:28:12;;;;;;;7.93;3.72;;;;;;;5.19;38.71;102145.16;4974533;28;20471;-63
2024/01/21 00:30:38;;;;;;;9.82;3.45;;;;;;;5.16;38.71;102135.53;4972268;28;20041;-62
2024/01/21 00:33:03;;;;;;;13.02;3.55;;;;;;;5.15;40.31;102128.47;4974612;28;20395;-63
2024/01/21 00:35:29;;;;;;;7.03;2.92;;;;;;;5.17;39.16;102131.91;4973402;28;20025;-62
2024/01/21 00:37:54;;;;;;;4.78;2.83;;;;;;;5.17;39.96;102123.09;4955988;28;20025;-62
2024/01/21 00:40:19;;;;;;;5.55;3.10;;;;;;;5.18;38.74;102111.53;4973086;28;20038;-62
2024/01/21 00:42:45;;;;;;;6.25;3.85;;;;;;;5.13;39.42;102110.88;4971684;28;20026;-62
2024/01/21 00:45:10;;;;;;;6.97;2.67;;;;;;;5.12;39.11;102102.03;4973775;28;20051;-63
2024/01/21 00:47:35;;;;;;;9.15;3.97;;;;;;;5.16;40.25;102098.34;4973044;28;20027;-63
2024/01/21 00:50:01;;;;;;;12.35;3.05;;;;;;;5.12;39.47;102091.41;4972713;28;20105;-64
2024/01/21 00:52:26;;;;;;;7.93;3.50;;;;;;;5.13;38.89;102093.16;4972968;28;20037;-62
2024/01/21 00:54:53;;;;;;;5.50;3.10;;;;;;;5.13;39.25;102093.16;4974177;28;20048;-63
2024/01/21 00:57:19;;;;;;;8.80;3.55;;;;;;;5.09;38.98;102091.53;4974355;28;20043;-62
2024/01/21 00:59:44;;;;;;;9.38;3.65;;;;;;;5.09;38.85;102091.53;4972696;28;20038;-62
2024/01/21 01:02:10;;;;;;;4.35;3.05;;;;;;;5.10;39.50;102092.41;4972781;28;20118;-63
2024/01/21 01:04:35;;;;;;;8.48;3.58;;;;;;;5.13;39.02;102103.78;4971930;28;20038;-62
2024/01/21 01:07:01;;;;;;;8.38;3.20;;;;;;;5.14;39.91;102104.63;4975766;28;20038;-63
2024/01/21 01:09:27;;;;;;;7.50;3.55;;;;;;;5.15;39.36;102104.56;4993179;28;20046;-65
2024/01/21 01:11:52;;;;;;;5.65;3.00;;;;;;;5.18;39.82;102101.78;4988052;28;20048;-64
2024/01/21 01:14:18;;;;;;;6.63;3.60;;;;;;;5.20;39.97;102099.94;4989028;28;20058;-64
2024/01/21 01:16:43;;;;;;;8.15;2.92;;;;;;;5.21;38.45;102093.69;4989690;28;20038;-63
2024/01/21 01:19:08;;;;;;;9.52;3.15;;;;;;;5.25;40.59;102092.63;4991669;28;20038;-62
2024/01/21 01:21:34;;;;;;;6.32;2.88;;;;;;;5.27;39.54;102090.78;4992023;28;20034;-63
2024/01/21 01:24:00;;;;;;;5.47;2.10;;;;;;;5.28;40.20;102081.88;4975839;28;20465;-62
2024/01/21 01:26:25;;;;;;;4.15;2.17;;;;;;;5.34;40.21;102074.56;4991621;28;20042;-63
2024/01/21 01:28:50;;;;;;;1.75;1.65;;;;;;;5.40;40.59;102076.97;4992312;28;20069;-62
2024/01/21 01:31:20;;;;;;;2.88;1.13;;;;;;;5.49;40.53;102080.09;4993526;28;20035;-62
2024/01/21 01:33:45;;;;;;;1.88;1.38;;;;;;;5.58;39.90;102062.91;4988092;28;20084;-62
2024/01/21 01:36:11;;;;;;;2.00;0.98;;;;;;;5.65;38.73;102059.03;4981557;28;20044;-63
2024/01/21 01:38:36;;;;;;;2.42;1.20;;;;;;;5.74;38.99;102055.97;4980557;28;20113;-62
2024/01/21 01:41:02;;;;;;;2.20;1.17;;;;;;;5.86;40.33;102044.84;4976029;28;20494;-62
2024/01/21 01:43:27;;;;;;;2.15;0.80;;;;;;;6.00;40.60;102033.56;4992207;28;20030;-63
2024/01/21 01:45:53;;;;;;;1.30;0.73;;;;;;;6.17;39.06;102036.31;4993670;28;20125;-63
2024/01/21 01:48:19;;;;;;;1.00;0.55;;;;;;;6.32;39.14;102024.94;4976074;28;20490;-63
2024/01/21 01:50:45;;;;;;;0.90;0.70;;;;;;;6.48;40.25;102031.25;4992318;28;20065;-69
2024/01/21 01:53:11;;;;;;;0.65;0.45;;;;;;;6.61;40.49;102007.56;4993087;28;20058;-69
2024/01/21 01:55:36;;;;;;;0.95;0.75;;;;;;;6.70;39.79;101999.97;4992595;28;20034;-69
2024/01/21 01:58:01;;;;;;;1.13;0.75;;;;;;;6.86;39.38;101994.78;4985232;28;20106;-69
2024/01/21 02:00:28;;;;;;;4.35;0.80;;;;;;;6.95;40.33;101986.34;4973227;28;20525;-69
2024/01/21 02:02:55;;;;;;;1.83;1.15;;;;;;;7.01;39.47;101973.53;4974854;28;20035;-69
2024/01/21 02:05:20;;;;;;;1.95;1.20;;;;;;;7.12;38.55;101993.47;4973415;28;20094;-69
2024/01/21 02:07:46;;;;;;;2.10;0.90;;;;;;;7.18;39.72;101986.00;4973579;28;20034;-69
2024/01/21 02:10:12;;;;;;;1.27;0.82;;;;;;;7.23;39.12;101973.28;4973231;28;20494;-70
2024/01/21 02:12:43;;;;;;;2.15;0.70;;;;;;;7.29;39.76;101977.44;4973035;28;20069;-70
2024/01/21 02:15:09;;;;;;;2.05;1.00;;;;;;;7.35;39.93;101972.66;4973321;28;20035;-70
2024/01/21 02:17:35;;;;;;;1.83;0.85;;;;;;;7.42;38.47;101974.06;4992671;28;20057;-69
2024/01/21 02:20:00;;;;;;;1.85;0.95;;;;;;;7.47;38.76;101984.47;4992568;28;20038;-69
2024/01/21 02:22:26;;;;;;;2.40;1.02;;;;;;;7.48;39.42;101970.22;4992636;28;20501;-69
2024/01/21 02:24:51;;;;;;;1.45;0.73;;;;;;;7.45;39.10;101971.22;4976312;28;20038;-70
2024/01/21 02:27:16;;;;;;;4.25;1.27;;;;;;;7.41;39.70;101956.34;4993074;28;20038;-69
2024/01/21 02:29:42;;;;;;;3.45;1.42;;;;;;;7.35;38.79;101966.47;4992740;28;20486;-69
2024/01/21 02:32:07;;;;;;;4.10;1.60;;;;;;;7.28;37.94;101963.28;4993510;28;20125;-69
2024/01/21 02:34:33;;;;;;;4.22;1.80;;;;;;;7.21;39.16;101953.00;4993839;28;20034;-69
2024/01/21 02:36:58;;;;;;;2.50;1.60;;;;;;;7.08;38.05;101946.59;4993013;28;20039;-69
2024/01/21 02:39:24;;;;;;;3.10;1.50;;;;;;;6.99;38.64;101953.25;4997392;28;20034;-69
2024/01/21 02:41:49;;;;;;;7.80;2.40;;;;;;;6.91;39.11;101950.13;4995918;28;20035;-69
2024/01/21 02:44:14;;;;;;;2.42;1.45;;;;;;;6.83;38.72;101957.66;4979652;28;20038;-69
2024/01/21 02:46:40;;;;;;;3.88;1.80;;;;;;;6.74;39.08;101955.44;4976366;28;20039;-69
2024/01/21 02:49:06;;;;;;;3.17;1.48;;;;;;;6.68;38.10;101953.09;4952706;28;20543;-70
2024/01/21 02:51:31;;;;;;;3.67;1.50;;;;;;;6.58;38.59;101931.41;4965564;28;20034;-69
2024/01/21 02:53:57;;;;;;;4.57;1.80;;;;;;;6.61;37.88;101941.03;4975233;28;20046;-69
2024/01/21 02:56:23;;;;;;;4.25;1.63;;;;;;;6.56;39.31;101937.75;4992619;28;20394;-68
2024/01/21 02:58:50;;;;;;;4.88;1.45;;;;;;;6.51;39.40;101945.94;4977365;28;20584;-69
2024/01/21 03:01:16;;;;;;;3.38;1.63;;;;;;;6.47;39.06;101940.84;4976160;28;20035;-62
2024/01/21 03:03:41;;;;;;;3.53;1.65;;;;;;;6.39;38.50;101930.59;4976728;28;20402;-63
2024/01/21 03:06:07;;;;;;;6.00;2.08;;;;;;;6.36;39.32;101926.28;4975160;28;20047;-63
2024/01/21 03:08:32;;;;;;;3.88;1.10;;;;;;;6.33;37.88;101923.78;4975335;28;20387;-63
2024/01/21 03:10:58;;;;;;;2.22;1.52;;;;;;;6.34;38.70;101930.81;4974933;28;20109;-63
2024/01/21 03:13:24;;;;;;;2.60;1.50;;;;;;;6.33;38.45;101921.13;4991846;28;20510;-63
2024/01/21 03:15:49;;;;;;;6.47;1.85;;;;;;;6.34;38.98;101921.94;4976522;28;20030;-63
2024/01/21 03:18:14;;;;;;;4.07;1.65;;;;;;;6.31;38.01;101911.47;4975689;28;20046;-63
2024/01/21 03:20:40;;;;;;;4.65;2.03;;;;;;;6.34;38.02;101912.19;4975052;28;20070;-63
2024/01/21 03:23:05;;;;;;;1.40;1.23;;;;;;;6.37;38.54;101906.72;4975183;28;20114;-63
2024/01/21 03:25:31;;;;;;;3.00;1.48;;;;;;;6.42;38.36;101906.50;4976250;28;20494;-63
2024/01/21 03:27:56;;;;;;;3.53;1.20;;;;;;;6.47;38.30;101906.25;4991548;28;20118;-63
2024/01/21 03:30:22;;;;;;;3.72;1.35;;;;;;;6.58;39.29;101914.56;4976320;28;20034;-63
2024/01/21 03:32:47;;;;;;;4.13;2.08;;;;;;;6.69;39.05;101910.44;4975107;28;20513;-62
2024/01/21 03:35:12;;;;;;;3.22;1.58;;;;;;;6.81;38.32;101911.59;4976170;28;20055;-63
2024/01/21 03:37:38;;;;;;;4.85;2.20;;;;;;;6.94;38.53;101907.38;4974880;28;20461;-63
2024/01/21 03:40:05;;;;;;;6.68;1.80;;;;;;;7.06;39.45;101880.09;4974859;28;20518;-62
2024/01/21 03:42:30;;;;;;;2.47;1.55;;;;;;;7.17;39.06;101872.41;4949163;28;20046;-63
2024/01/21 03:44:56;;;;;;;2.85;1.38;;;;;;;7.34;39.03;101869.66;4939515;29;20043;-62
2024/01/21 03:47:21;;;;;;;2.50;1.85;;;;;;;7.46;38.93;101874.34;4983061;28;20042;-63
2024/01/21 03:49:47;;;;;;;3.15;2.08;;;;;;;7.57;38.63;101871.06;4993375;28;20379;-62
2024/01/21 03:52:12;;;;;;;3.88;1.50;;;;;;;7.69;38.72;101864.19;4994289;28;20080;-62
2024/01/21 03:54:37;;;;;;;3.20;1.48;;;;;;;7.79;38.63;101871.59;4994010;28;20038;-63
2024/01/21 03:57:03;;;;;;;4.07;1.88;;;;;;;7.88;39.04;101875.56;4993783;28;20038;-63
2024/01/21 03:59:28;;;;;;;5.50;3.13;;;;;;;7.98;39.54;101877.66;4993541;28;20408;-63
2024/01/21 04:01:53;;;;;;;3.97;2.13;;;;;;;8.05;38.53;101867.47;4993829;28;20092;-63
2024/01/21 04:04:19;;;;;;;4.70;2.38;;;;;;;8.12;39.14;101864.34;4994973;28;20485;-63
2024/01/21 04:06:44;;;;;;;4.22;2.10;;;;;;;8.18;39.02;101856.00;4994993;28;20046;-63
2024/01/21 04:09:12;;;;;;;4.13;1.63;;;;;;;8.28;39.08;101864.38;4994884;28;20050;-64
2024/01/21 04:11:37;;;;;;;2.90;2.30;;;;;;;8.31;38.16;101864.19;4994884;28;20038;-63
2024/01/21 04:14:03;;;;;;;4.38;1.85;;;;;;;8.34;39.15;101868.50;4993524;28;20089;-64
2024/01/21 04:16:29;;;;;;;4.25;2.08;;;;;;;8.41;37.85;101870.72;4994872;28;20581;-63
2024/01/21 04:18:54;;;;;;;6.43;2.20;;;;;;;8.43;38.52;101863.47;4993176;28;20045;-63
2024/01/21 04:21:19;;;;;;;5.22;1.98;;;;;;;8.47;38.24;101859.69;4993668;28;20453;-63
2024/01/21 04:23:45;;;;;;;6.50;1.75;;;;;;;8.51;38.68;101847.88;4994595;28;20117;-63
2024/01/21 04:26:10;;;;;;;3.75;1.90;;;;;;;8.45;38.31;101824.22;4994707;28;20034;-63
2024/01/21 04:28:39;;;;;;;3.58;2.10;;;;;;;8.57;38.96;101839.47;4993340;28;20457;-63
2024/01/21 04:31:05;;;;;;;5.32;3.33;;;;;;;8.61;38.48;101854.38;4993209;28;20038;-63
2024/01/21 04:33:31;;;;;;;6.45;2.70;;;;;;;8.66;38.39;101875.47;4993564;28;20146;-63
2024/01/21 04:35:56;;;;;;;4.85;2.00;;;;;;;8.68;38.07;101873.59;4993324;28;20425;-63
2024/01/21 04:38:23;;;;;;;6.05;2.63;;;;;;;8.71;38.19;101860.88;4993119;28;20085;-63
2024/01/21 04:40:49;;;;;;;4.90;2.47;;;;;;;8.75;38.61;101862.44;4993201;28;20104;-63
2024/01/21 04:43:14;;;;;;;6.32;2.50;;;;;;;8.75;38.01;101854.41;4994219;28;20482;-62
2024/01/21 04:45:40;;;;;;;5.97;2.90;;;;;;;8.74;38.25;101847.34;4992994;28;20030;-63
2024/01/21 04:48:05;;;;;;;7.25;3.03;;;;;;;8.80;38.53;101854.13;4994088;28;20042;-63
2024/01/21 04:50:30;;;;;;;3.60;2.55;;;;;;;8.77;37.83;101849.84;4976392;28;20074;-63
2024/01/21 04:52:56;;;;;;;5.00;2.63;;;;;;;8.74;38.37;101847.34;4994205;28;20042;-63
2024/01/21 04:55:21;;;;;;;7.13;2.97;;;;;;;8.74;38.21;101850.00;4994230;28;20026;-63
2024/01/21 04:57:46;;;;;;;4.93;2.78;;;;;;;8.74;38.12;101836.66;4976608;28;20133;-63
2024/01/21 05:00:12;;;;;;;5.60;2.60;;;;;;;8.72;38.06;101829.69;4992588;28;20034;-64
2024/01/21 05:02:38;;;;;;;7.28;3.03;;;;;;;8.69;37.99;101822.72;4994155;28;20038;-64
2024/01/21 05:05:04;;;;;;;5.20;2.88;;;;;;;8.70;38.59;101820.91;4993761;28;20031;-63
2024/01/21 05:07:29;;;;;;;9.23;3.05;;;;;;;8.70;38.15;101812.91;4993843;28;20468;-63
2024/01/21 05:09:55;;;;;;;6.72;2.53;;;;;;;8.71;38.13;101823.47;4993378;28;20057;-63
2024/01/21 05:12:20;;;;;;;4.72;2.30;;;;;;;8.72;38.53;101809.19;4992508;28;20050;-63
2024/01/21 05:14:45;;;;;;;6.28;3.08;;;;;;;8.73;38.06;101802.03;4993851;28;20034;-64
2024/01/21 05:17:11;;;;;;;6.22;2.95;;;;;;;8.73;39.12;101800.25;4992325;28;20042;-63
2024/01/21 05:19:37;;;;;;;6.22;2.47;;;;;;;8.76;37.97;101786.69;4993639;28;20082;-63
2024/01/21 05:22:02;;;;;;;6.82;2.58;;;;;;;8.78;38.53;101786.59;4992332;28;20062;-63
2024/01/21 05:24:27;;;;;;;3.67;2.20;;;;;;;8.77;37.97;101791.06;4993866;28;20401;-63
2024/01/21 05:26:53;;;;;;;4.78;2.50;;;;;;;8.78;38.08;101784.78;4992290;28;20411;-63
2024/01/21 05:29:18;;;;;;;9.13;3.28;;;;;;;8.85;38.28;101792.41;4992267;28;20040;-63
2024/01/21 05:31:45;;;;;;;6.90;2.67;;;;;;;8.85;38.64;101787.09;4992280;28;20493;-63
2024/01/21 05:34:10;;;;;;;4.20;2.17;;;;;;;8.89;38.11;101791.25;4992449;28;20482;-63
2024/01/21 05:36:35;;;;;;;4.93;2.33;;;;;;;8.88;37.56;101778.88;4992406;28;20065;-63
2024/01/21 05:39:01;;;;;;;6.22;2.35;;;;;;;8.91;38.44;101778.66;4992048;28;20038;-64
2024/01/21 05:41:28;;;;;;;5.20;2.22;;;;;;;8.92;38.30;101773.25;4992118;28;20042;-63
2024/01/21 05:43:54;;;;;;;7.05;3.90;;;;;;;8.94;38.04;101783.81;4993571;28;20039;-63
2024/01/21 05:46:19;;;;;;;7.32;3.08;;;;;;;8.98;37.66;101763.97;4992157;28;20093;-64
2024/01/21 05:48:44;;;;;;;6.93;2.95;;;;;;;8.93;38.29;101755.41;4993673;28;20042;-63
2024/01/21 05:51:10;;;;;;;6.68;2.88;;;;;;;8.93;37.28;101750.91;4976083;28;20034;-63
2024/01/21 05:53:36;;;;;;;5.72;3.00;;;;;;;8.94;38.15;101754.44;4991980;28;20038;-63
2024/01/21 05:56:01;;;;;;;6.55;2.83;;;;;;;8.92;37.84;101759.00;4993467;28;20054;-63
2024/01/21 05:58:26;;;;;;;5.22;2.92;;;;;;;8.97;38.37;101738.22;4992025;28;20518;-63
2024/01/21 06:00:52;;;;;;;6.20;2.90;;;;;;;8.98;38.07;101731.91;4992049;28;20061;-63
2024/01/21 06:03:17;;;;;;;5.07;2.92;;;;;;;9.03;37.87;101729.81;4992178;28;20084;-63
2024/01/21 06:05:43;;;;;;;5.03;2.63;;;;;;;9.01;37.64;101731.72;4992404;28;20413;-63
2024/01/21 06:08:08;;;;;;;10.45;3.15;;;;;;;9.05;37.36;101733.22;4992460;28;20030;-63
2024/01/21 06:10:33;;;;;;;4.82;2.60;;;;;;;9.08;37.83;101733.91;4993168;28;20058;-63
2024/01/21 06:12:59;;;;;;;3.95;2.53;;;;;;;9.08;36.92;101739.25;4994436;28;20043;-63
2024/01/21 06:15:24;;;;;;;8.48;2.53;;;;;;;9.10;37.21;101747.19;4996106;28;20398;-63
2024/01/21 06:17:50;;;;;;;8.73;3.08;;;;;;;9.09;38.11;101749.00;4995756;28;20062;-63
2024/01/21 06:20:15;;;;;;;4.53;2.63;;;;;;;9.10;37.73;101752.53;4995897;28;20101;-63
2024/01/21 06:22:41;;;;;;;6.85;3.00;;;;;;;9.11;37.08;101775.59;4997097;28;20498;-63
2024/01/21 06:25:07;;;;;;;8.13;3.50;;;;;;;9.11;37.62;101775.59;4979327;28;20118;-63
2024/01/21 06:27:32;;;;;;;5.03;2.60;;;;;;;9.11;37.79;101780.94;4995718;28;20038;-63
2024/01/21 06:29:57;;;;;;;8.95;4.22;;;;;;;9.09;37.49;101772.19;4995430;28;20125;-63
2024/01/21 06:32:23;;;;;;;8.45;3.03;;;;;;;9.08;37.71;101767.78;4995640;28;20045;-64
2024/01/21 06:34:48;;;;;;;3.95;3.08;;;;;;;9.06;37.63;101767.03;4994485;28;20572;-63
2024/01/21 06:37:13;;;;;;;5.80;3.33;;;;;;;9.07;37.70;101777.59;4995039;28;20039;-63
2024/01/21 06:39:39;;;;;;;5.55;3.20;;;;;;;9.06;37.33;101799.97;4979120;28;20034;-64
2024/01/21 06:42:04;;;;;;;8.98;2.90;;;;;;;9.07;37.70;101790.13;4995512;28;20498;-63
2024/01/21 06:44:30;;;;;;;6.57;3.10;;;;;;;9.06;37.20;101791.94;4978967;28;20096;-63
2024/01/21 06:46:55;;;;;;;6.55;2.50;;;;;;;9.04;37.76;101793.88;4978704;28;20042;-62
2024/01/21 06:49:21;;;;;;;5.20;2.92;;;;;;;9.05;37.37;101789.34;4995226;28;20397;-63
2024/01/21 06:51:55;;;;;;;6.07;3.10;;;;;;;9.04;37.60;101795.66;4995272;28;20085;-63
2024/01/21 06:54:21;;;;;;;8.13;2.65;;;;;;;9.01;37.83;101788.72;4995130;28;20034;-62
2024/01/21 06:56:46;;;;;;;6.22;2.10;;;;;;;9.01;37.34;101801.19;4996356;28;20069;-63
2024/01/21 06:59:12;;;;;;;10.07;3.40;;;;;;;9.01;37.53;101809.22;4995001;28;20038;-63
2024/01/21 07:01:37;;;;;;;7.53;4.28;;;;;;;9.03;37.63;101810.84;4995061;28;20046;-64
2024/01/21 07:04:03;;;;;;;7.88;3.40;;;;;;;9.05;37.25;101818.75;4996184;28;20109;-63
2024/01/21 07:06:28;;;;;;;4.20;2.50;;;;;;;9.05;37.00;101830.31;4994655;28;20046;-63
2024/01/21 07:08:53;;;;;;;5.32;2.65;;;;;;;9.05;37.62;101832.09;4994588;28;20038;-63
2024/01/21 07:11:19;;;;;;;5.47;3.03;;;;;;;9.04;37.76;101833.94;4978171;28;20064;-64
2024/01/21 07:13:45;;;;;;;6.63;2.95;;;;;;;9.03;37.19;101842.03;4978492;28;20036;-63
2024/01/21 07:16:10;;;;;;;6.35;3.25;;;;;;;9.03;37.52;101842.91;4994809;28;20022;-63
2024/01/21 07:18:35;;;;;;;6.25;3.05;;;;;;;9.06;37.22;101841.84;4996314;28;20026;-63
2024/01/21 07:21:02;;;;;;;5.82;3.35;;;;;;;9.06;37.27;101836.50;4996393;28;20041;-63
2024/01/21 07:23:27;;;;;;;4.88;2.92;;;;;;;9.05;37.22;101824.09;4993774;28;20034;-63
2024/01/21 07:25:53;;;;;;;6.38;2.80;;;;;;;9.06;37.48;101842.72;4995472;28;20034;-63
2024/01/21 07:28:18;;;;;;;6.97;2.92;;;;;;;9.03;37.44;101832.22;4995824;28;20524;-63
2024/01/21 07:30:44;;;;;;;6.13;2.78;;;;;;;9.12;37.18;101841.47;4978513;28;20037;-63
2024/01/21 07:33:10;;;;;;;5.57;2.75;;;;;;;9.12;36.96;101838.81;4994393;28;20109;-63
2024/01/21 07:35:36;;;;;;;5.97;2.53;;;;;;;9.11;37.55;101832.59;4994477;28;20502;-63
2024/01/21 07:38:01;;;;;;;6.72;3.20;;;;;;;9.11;36.36;101805.00;4994375;28;20036;-63
2024/01/21 07:40:27;;;;;;;7.38;2.78;;;;;;;9.12;37.53;101790.69;4994444;28;20442;-63
2024/01/21 07:42:53;;;;;;;4.22;2.63;;;;;;;9.11;37.55;101786.31;4977956;28;20081;-63
2024/01/21 07:45:18;;;;;;;4.32;2.67;;;;;;;9.12;37.09;101766.66;4993483;28;20031;-63
2024/01/21 07:47:43;;;;;;;5.25;2.45;;;;;;;9.08;37.33;101743.72;4995523;28;20085;-63
2024/01/21 07:50:09;;;;;;;4.40;2.67;;;;;;;9.13;36.71;101742.47;4993847;28;20060;-63
2024/01/21 07:52:35;;;;;;;8.57;2.95;;;;;;;9.16;36.91;101752.13;4995378;28;20030;-63
2024/01/21 07:55:00;;;;;;;10.52;2.72;;;;;;;9.21;37.25;101739.34;4992972;28;20573;-64
2024/01/21 07:57:26;;;;;;;3.60;2.30;;;;;;;9.24;37.18;101739.97;4993919;28;20061;-63
2024/01/21 07:59:51;;;;;;;4.97;2.80;;;;;;;9.27;37.22;101734.44;4977357;28;20113;-63
2024/01/21 08:02:17;;;;;;;3.53;2.25;;;;;;;9.30;36.61;101730.72;4977568;28;20037;-63
2024/01/21 08:04:42;;;;;;;7.18;2.88;;;;;;;9.34;36.58;101732.25;4977644;28;20038;-63
2024/01/21 08:07:08;;;;;;;6.60;2.60;;;;;;;9.37;36.45;101729.38;4994434;28;20548;-65
2024/01/21 08:09:34;;;;;;;13.45;4.25;;;;;;;9.39;37.43;101735.47;4992046;28;20461;-63
2024/01/21 08:11:59;;;;;;;7.93;3.00;;;;;;;9.43;37.15;101781.59;4977436;28;20034;-63
2024/01/21 08:14:24;;;;;;;11.80;4.40;;;;;;;9.41;36.62;101778.16;4993736;28;20026;-62
2024/01/21 08:16:51;;;;;;;7.50;3.00;;;;;;;9.44;36.80;101812.69;4993485;28;20018;-63
2024/01/21 08:19:17;;;;;;;14.95;3.75;;;;;;;9.44;37.10;101810.91;4993505;28;20030;-63
2024/01/21 08:21:42;;;;;;;5.32;2.55;;;;;;;9.45;36.82;101815.28;4977209;28;20029;-63
2024/01/21 08:24:08;;;;;;;5.68;3.13;;;;;;;9.47;37.24;101832.09;4993343;28;20019;-63
2024/01/21 08:26:34;;;;;;;6.47;3.28;;;;;;;9.52;36.43;101829.97;4993404;28;20559;-63
2024/01/21 08:29:00;;;;;;;4.47;2.63;;;;;;;9.53;37.13;101834.38;4977089;28;20045;-63
2024/01/21 08:31:26;;;;;;;6.63;3.33;;;;;;;9.55;36.88;101842.31;4994567;28;20019;-63
2024/01/21 08:33:51;;;;;;;12.77;3.90;;;;;;;9.53;36.63;101831.72;4993203;28;20072;-63
2024/01/21 08:36:16;;;;;;;6.30;3.08;;;;;;;9.54;36.82;101832.56;4994456;28;20021;-63
2024/01/21 08:38:44;;;;;;;6.93;3.30;;;;;;;9.57;36.69;101856.44;4977010;28;20022;-63
2024/01/21 08:41:10;;;;;;;8.32;3.33;;;;;;;9.56;36.36;101844.88;4977421;28;20023;-63
2024/01/21 08:43:35;;;;;;;10.10;4.28;;;;;;;9.59;36.10;101835.81;4991125;28;20490;-63
2024/01/21 08:46:00;;;;;;;7.25;3.85;;;;;;;9.59;36.13;101823.31;4994426;28;20022;-63
2024/01/21 08:48:26;;;;;;;7.20;2.95;;;;;;;9.68;36.03;101854.81;4994962;28;20385;-63
2024/01/21 08:50:51;;;;;;;5.88;2.67;;;;;;;9.75;36.12;101852.59;4973866;28;20475;-63
2024/01/21 08:53:17;;;;;;;5.30;2.58;;;;;;;9.84;36.67;101857.34;4975844;28;20505;-63
2024/01/21 08:55:42;;;;;;;5.22;2.40;;;;;;;9.98;36.66;101851.09;4974509;28;20482;-66
2024/01/21 08:58:07;;;;;;;6.75;2.88;;;;;;;10.08;36.37;101860.25;4974713;28;20474;-64
2024/01/21 09:00:33;;;;;;;4.40;2.17;;;;;;;10.15;36.93;101845.53;4991680;28;20054;-65
2024/01/21 09:02:58;;;;;;;5.78;3.00;;;;;;;10.23;35.73;101870.84;4992948;28;20449;-65
2024/01/21 09:05:24;;;;;;;4.30;2.70;;;;;;;10.24;36.77;101853.81;4993916;28;20030;-65
2024/01/21 09:07:49;;;;;;;6.15;2.75;;;;;;;10.29;36.85;101858.88;4967821;28;20057;-65
2024/01/21 09:10:14;;;;;;;4.95;2.20;;;;;;;10.35;37.09;101869.16;4968636;28;20138;-65
2024/01/21 09:12:40;;;;;;;7.47;2.63;;;;;;;10.41;36.48;101868.78;5007060;28;20038;-65
2024/01/21 09:15:06;;;;;;;4.82;2.60;;;;;;;10.44;36.67;101869.41;4990396;28;20030;-65
2024/01/21 09:17:32;;;;;;;6.30;2.55;;;;;;;10.51;36.89;101892.16;4993730;28;20125;-65
2024/01/21 09:19:58;;;;;;;5.78;2.53;;;;;;;10.58;36.70;101897.94;4992930;28;20132;-65
2024/01/21 09:22:23;;;;;;;4.80;2.70;;;;;;;10.65;37.00;101882.31;4993684;28;20037;-65
2024/01/21 09:24:49;;;;;;;4.50;2.63;;;;;;;10.77;37.09;101877.00;4976382;28;20027;-65
2024/01/21 09:27:15;;;;;;;5.38;2.50;;;;;;;10.83;36.06;101884.59;4992608;28;20413;-66
2024/01/21 09:29:42;;;;;;;4.65;2.95;;;;;;;10.87;37.19;101885.25;4976289;28;20506;-63
2024/01/21 09:32:07;;;;;;;5.55;2.58;;;;;;;10.89;36.76;101881.50;4991421;28;20105;-63
2024/01/21 09:34:33;;;;;;;5.07;2.58;;;;;;;10.94;36.96;101883.88;4992330;28;20113;-62
2024/01/21 09:36:58;;;;;;;4.68;2.67;;;;;;;10.93;36.86;101874.97;4992657;28;20069;-63
2024/01/21 09:39:25;;;;;;;5.07;2.60;;;;;;;10.91;37.07;101881.41;4992288;28;20031;-63
2024/01/21 09:41:52;;;;;;;6.07;2.63;;;;;;;10.87;37.14;101882.56;4992265;28;20027;-65
2024/01/21 09:44:24;;;;;;;4.45;2.83;;;;;;;10.88;37.49;101878.94;4993414;28;20045;-65
2024/01/21 09:46:51;;;;;;;5.60;2.70;;;;;;;10.86;37.46;101878.19;4992766;28;20486;-65
2024/01/21 09:49:17;;;;;;;3.60;2.83;;;;;;;10.87;37.14;101887.94;4996275;28;20034;-65
2024/01/21 09:51:43;;;;;;;5.53;2.63;;;;;;;10.85;37.47;101885.38;4997554;28;20486;-64
2024/01/21 09:54:09;;;;;;;4.93;3.20;;;;;;;10.85;37.16;101890.72;4996011;28;20038;-64
2024/01/21 09:56:34;;;;;;;5.95;3.10;;;;;;;10.83;36.86;101887.28;4979989;28;20031;-65
2024/01/21 09:59:00;;;;;;;4.55;2.55;;;;;;;10.84;36.89;101889.00;4996142;28;20038;-65
2024/01/21 10:01:26;;;;;;;6.22;3.20;;;;;;;10.86;37.56;101891.59;4997183;28;20517;-71
2024/01/21 10:03:51;;;;;;;7.13;2.70;;;;;;;10.87;37.87;101896.84;4997245;28;20109;-70
2024/01/21 10:06:17;;;;;;;5.50;3.15;;;;;;;10.88;37.17;101886.97;4989635;28;20039;-71
2024/01/21 10:08:43;;;;;;;5.88;2.53;;;;;;;10.88;37.55;101903.91;4995966;28;20034;-70
2024/01/21 10:11:08;;;;;;;4.35;2.53;;;;;;;10.90;37.51;101904.66;4995761;28;20046;-70
2024/01/21 10:13:36;;;;;;;6.90;3.20;;;;;;;10.93;37.84;101907.13;4996456;28;20375;-70
2024/01/21 10:16:02;;;;;;;5.40;2.58;;;;;;;10.98;38.17;101913.03;4995973;28;20049;-70
2024/01/21 10:18:28;;;;;;;5.13;3.15;;;;;;;10.99;38.01;101903.19;4995768;28;20034;-68
2024/01/21 10:20:53;;;;;;;4.95;3.03;;;;;;;11.02;38.38;101914.56;4996066;28;20045;-68
2024/01/21 10:23:19;;;;;;;3.58;2.20;;;;;;;11.02;38.69;101903.84;4996900;28;20038;-68
2024/01/21 10:25:44;;;;;;;4.78;2.50;;;;;;;11.07;37.86;101900.81;4995861;28;20605;-68
2024/01/21 10:28:11;;;;;;;4.65;2.45;;;;;;;11.08;38.65;101908.75;4995861;28;20084;-70
2024/01/21 10:30:41;;;;;;;6.63;2.78;;;;;;;11.09;38.61;101910.47;4996865;28;20374;-70
2024/01/21 10:33:06;;;;;;;5.13;2.97;;;;;;;11.13;38.05;101904.91;4979492;28;20168;-70
2024/01/21 10:35:32;;;;;;;4.90;2.75;;;;;;;11.16;37.73;101899.34;4992861;28;20110;-70
2024/01/21 10:37:58;;;;;;;4.50;2.40;;;;;;;11.19;38.21;101904.50;4979535;28;20046;-71
2024/01/21 10:40:24;;;;;;;6.03;2.63;;;;;;;11.23;38.07;101900.59;4995385;28;20041;-70
2024/01/21 10:42:53;;;;;;;9.70;2.65;;;;;;;11.23;38.55;101903.28;4995778;28;20394;-70
2024/01/21 10:45:22;;;;;;;4.32;2.47;;;;;;;11.27;38.55;101896.75;4995610;28;20169;-70
2024/01/21 10:47:49;;;;;;;4.43;2.72;;;;;;;11.27;38.31;101891.41;4995186;28;20121;-70
2024/01/21 10:50:16;;;;;;;5.15;2.92;;;;;;;11.33;38.16;101896.34;4995341;28;20041;-70
2024/01/21 10:52:44;;;;;;;7.03;2.75;;;;;;;11.36;38.68;101885.41;4995222;28;20038;-68
2024/01/21 10:55:10;;;;;;;4.78;2.25;;;;;;;11.40;38.50;101884.19;4979385;28;20034;-68
2024/01/21 10:57:35;;;;;;;4.45;2.75;;;;;;;11.43;38.60;101886.66;4975361;28;20062;-70
2024/01/21 11:00:00;;;;;;;7.10;3.15;;;;;;;11.48;38.01;101896.09;4976804;28;20569;-70
2024/01/21 11:02:28;;;;;;;6.47;3.13;;;;;;;11.51;38.58;101884.28;4975615;28;20034;-68
2024/01/21 11:04:55;;;;;;;6.07;2.65;;;;;;;11.56;38.76;101874.06;4991050;28;20405;-70
2024/01/21 11:07:20;;;;;;;3.75;2.22;;;;;;;11.59;38.73;101865.81;4986847;28;20121;-70
2024/01/21 11:09:48;;;;;;;5.30;2.67;;;;;;;11.65;38.85;101860.00;4994783;28;20070;-68
2024/01/21 11:12:14;;;;;;;7.15;2.95;;;;;;;11.74;38.47;101859.38;4994994;28;20046;-62
2024/01/21 11:14:40;;;;;;;3.30;2.33;;;;;;;11.79;37.62;101865.25;4995121;28;20174;-64
2024/01/21 11:17:15;;;;;;;4.35;2.80;;;;;;;11.84;38.85;101860.41;4996376;28;20045;-62
2024/01/21 11:19:44;;;;;;;5.85;2.83;;;;;;;11.84;38.47;101855.03;4967674;28;20433;-62
2024/01/21 11:22:11;;;;;;;4.35;2.47;;;;;;;11.85;38.05;101866.66;4978219;28;20042;-62
2024/01/21 11:24:37;;;;;;;3.40;2.30;;;;;;;11.87;38.14;101846.78;4991571;28;20453;-62